Time;durP1;ratioP1;P1;durP2;ratioP2;P2;SDS_P1;SDS_P2;PMS_P1;PMS_P2;Temp;Humidity;BMP_temperature;BMP_pressure;BME280_temperature;BME280_humidity;BME280_pressure;Samples;Min_cycle;Max_cycle;Signal;HPM_P1;HPM_P2
2024/01/30 00:01:41;;;;;;;29.55;23.20;;;5.40;99.90;;;;;;5017493;28;20091;-72
2024/01/30 00:04:07;;;;;;;31.50;24.05;;;5.30;99.90;;;;;;5014970;28;20065;-72
2024/01/30 00:06:32;;;;;;;30.50;23.15;;;5.30;99.90;;;;;;5014806;28;20918;-72
2024/01/30 00:08:58;;;;;;;33.47;25.30;;;5.40;99.90;;;;;;5032857;28;20503;-72
2024/01/30 00:11:25;;;;;;;31.23;24.70;;;5.40;99.90;;;;;;5037273;28;20717;-72
2024/01/30 00:13:51;;;;;;;31.70;24.63;;;5.40;99.90;;;;;;5038911;28;20037;-72
2024/01/30 00:16:24;;;;;;;33.75;25.15;;;5.40;99.90;;;;;;5036166;28;20614;-72
2024/01/30 00:18:50;;;;;;;;;;;5.50;99.90;;;;;;5018999;28;20538;-72
2024/01/30 00:21:16;;;;;;;30.42;24.70;;;5.40;99.90;;;;;;5038380;28;19920;-72
2024/01/30 00:23:41;;;;;;;29.98;24.42;;;5.50;99.90;;;;;;5020518;28;20076;-72
2024/01/30 00:26:07;;;;;;;30.08;23.63;;;5.50;99.90;;;;;;5005963;28;20041;-72
2024/01/30 00:28:32;;;;;;;32.10;24.85;;;5.50;99.90;;;;;;5038083;28;20041;-72
2024/01/30 00:30:58;;;;;;;28.42;23.00;;;5.50;99.90;;;;;;5038744;28;20037;-72
2024/01/30 00:33:23;;;;;;;29.02;21.70;;;5.50;99.90;;;;;;5037489;28;20041;-72
2024/01/30 00:35:49;;;;;;;29.27;21.95;;;5.40;99.90;;;;;;5032047;28;20048;-72
2024/01/30 00:38:14;;;;;;;31.02;22.63;;;5.40;99.90;;;;;;5012999;28;20052;-72
2024/01/30 00:40:40;;;;;;;29.48;21.70;;;5.40;99.90;;;;;;5012743;28;20045;-72
2024/01/30 00:43:06;;;;;;;25.85;22.23;;;5.30;99.90;;;;;;5012529;28;20069;-72
2024/01/30 00:45:32;;;;;;;32.75;22.25;;;5.30;99.90;;;;;;5015288;28;20079;-72
2024/01/30 00:47:57;;;;;;;26.50;20.80;;;5.30;99.90;;;;;;5029084;28;20102;-72
2024/01/30 00:50:23;;;;;;;30.48;22.90;;;5.30;99.90;;;;;;5013899;28;20059;-72
2024/01/30 00:52:49;;;;;;;29.52;22.60;;;5.30;99.90;;;;;;5032446;28;20029;-72
2024/01/30 00:55:14;;;;;;;28.77;23.38;;;5.30;99.90;;;;;;5028378;28;20427;-72
2024/01/30 00:57:40;;;;;;;27.67;23.10;;;5.20;99.90;;;;;;5012205;28;20044;-72
2024/01/30 01:00:08;;;;;;;29.33;22.42;;;5.30;99.90;;;;;;5016431;28;20044;-72
2024/01/30 01:02:34;;;;;;;32.67;23.48;;;5.30;99.90;;;;;;5031121;28;20064;-72
2024/01/30 01:05:00;;;;;;;28.70;23.27;;;5.20;99.90;;;;;;5031104;28;20041;-72
2024/01/30 01:07:25;;;;;;;30.67;23.73;;;5.20;99.90;;;;;;5032382;28;20064;-72
2024/01/30 01:09:51;;;;;;;30.83;23.25;;;5.20;99.90;;;;;;5016086;28;20044;-72
2024/01/30 01:12:17;;;;;;;30.70;24.27;;;5.20;99.90;;;;;;5015393;28;20407;-72
2024/01/30 01:14:42;;;;;;;33.08;24.08;;;5.20;99.90;;;;;;5032564;28;20036;-72
2024/01/30 01:17:08;;;;;;;33.13;23.52;;;5.20;99.90;;;;;;5016763;28;20049;-72
2024/01/30 01:19:33;;;;;;;32.38;23.75;;;5.20;99.90;;;;;;5031911;28;20079;-72
2024/01/30 01:21:59;;;;;;;28.13;23.75;;;5.20;99.90;;;;;;5032614;28;20040;-72
2024/01/30 01:24:24;;;;;;;31.02;24.70;;;5.30;99.90;;;;;;5032148;28;20436;-72
2024/01/30 01:26:50;;;;;;;29.92;23.55;;;5.20;99.90;;;;;;5015573;28;20045;-72
2024/01/30 01:29:16;;;;;;;30.20;24.15;;;5.30;99.90;;;;;;5014265;28;20676;-72
2024/01/30 01:31:45;;;;;;;28.75;22.92;;;5.30;99.90;;;;;;5015626;28;20045;-72
2024/01/30 01:34:11;;;;;;;29.58;23.65;;;5.30;99.90;;;;;;5014673;28;20045;-72
2024/01/30 01:36:37;;;;;;;30.38;22.45;;;5.30;99.90;;;;;;5014138;28;20779;-72
2024/01/30 01:39:03;;;;;;;29.33;22.90;;;5.30;99.90;;;;;;5016182;28;20071;-72
2024/01/30 01:41:35;;;;;;;31.88;22.27;;;5.30;99.90;;;;;;5015102;28;20052;-72
2024/01/30 01:44:00;;;;;;;34.97;23.53;;;5.20;99.90;;;;;;5013581;28;20044;-72
2024/01/30 01:46:29;;;;;;;32.88;24.10;;;5.10;99.90;;;;;;5015162;28;20041;-72
2024/01/30 01:48:56;;;;;;;30.48;24.25;;;5.10;99.90;;;;;;5032026;28;20037;-72
2024/01/30 01:51:22;;;;;;;33.28;24.67;;;5.20;99.90;;;;;;5014863;28;20067;-72
2024/01/30 01:53:48;;;;;;;34.00;24.65;;;5.30;99.90;;;;;;5030803;28;20470;-72
2024/01/30 01:56:14;;;;;;;33.28;24.23;;;5.30;99.90;;;;;;5013804;28;20132;-72
2024/01/30 01:58:41;;;;;;;31.10;23.92;;;5.40;99.90;;;;;;5033391;28;20045;-72
2024/01/30 02:01:08;;;;;;;32.60;24.48;;;5.40;99.90;;;;;;5013830;28;20141;-72
2024/01/30 02:03:34;;;;;;;31.00;24.33;;;5.40;99.90;;;;;;5032574;28;20052;-72
2024/01/30 02:06:01;;;;;;;32.45;24.05;;;5.50;99.90;;;;;;4996775;28;20107;-72
2024/01/30 02:08:28;;;;;;;28.23;23.25;;;5.40;99.90;;;;;;5029627;28;20095;-72
2024/01/30 02:10:54;;;;;;;31.85;24.08;;;5.40;99.90;;;;;;5014236;28;20123;-72
2024/01/30 02:13:20;;;;;;;30.13;22.42;;;5.40;99.90;;;;;;5010077;28;20079;-72
2024/01/30 02:15:50;;;;;;;26.08;22.48;;;5.40;99.90;;;;;;5031713;28;20075;-72
2024/01/30 02:18:15;;;;;;;28.88;23.48;;;5.30;99.90;;;;;;5025485;28;20728;-72
2024/01/30 02:20:41;;;;;;;29.88;23.15;;;5.30;99.90;;;;;;4998716;28;20059;-72
2024/01/30 02:23:10;;;;;;;30.23;22.98;;;5.30;99.90;;;;;;5013165;28;20391;-72
2024/01/30 02:25:44;;;;;;;31.90;23.42;;;5.40;99.90;;;;;;5013282;28;20052;-72
2024/01/30 02:28:13;;;;;;;31.67;23.52;;;5.40;99.90;;;;;;5033089;28;20131;-72
2024/01/30 02:30:40;;;;;;;30.05;23.60;;;5.40;99.90;;;;;;5014582;28;20136;-73
2024/01/30 02:33:06;;;;;;;28.13;22.90;;;5.40;99.90;;;;;;5013062;28;20041;-72
2024/01/30 02:35:33;;;;;;;29.02;22.88;;;5.50;99.90;;;;;;5033110;28;20044;-72
2024/01/30 02:37:58;;;;;;;29.75;22.60;;;5.40;99.90;;;;;;5031146;28;20044;-73
2024/01/30 02:40:24;;;;;;;30.88;23.75;;;5.50;99.90;;;;;;5033355;28;20660;-72
2024/01/30 02:42:50;;;;;;;29.65;22.73;;;5.50;99.90;;;;;;5030086;28;20049;-72
2024/01/30 02:45:15;;;;;;;29.30;23.48;;;5.40;99.90;;;;;;5033714;28;20052;-72
2024/01/30 02:47:41;;;;;;;28.33;21.77;;;5.40;99.90;;;;;;5012831;28;20102;-72
2024/01/30 02:50:07;;;;;;;28.73;21.83;;;5.40;99.90;;;;;;5026154;28;20059;-72
2024/01/30 02:52:33;;;;;;;27.85;22.15;;;5.30;99.90;;;;;;5032530;28;20051;-72
2024/01/30 02:54:59;;;;;;;29.55;23.30;;;5.20;99.90;;;;;;5030863;28;20124;-72
2024/01/30 02:57:24;;;;;;;30.70;23.23;;;5.30;99.90;;;;;;5033140;28;20048;-72
2024/01/30 02:59:50;;;;;;;30.90;23.55;;;5.20;99.90;;;;;;5012141;28;20049;-72
2024/01/30 03:02:16;;;;;;;36.15;23.80;;;5.30;99.90;;;;;;5013441;28;20456;-72
2024/01/30 03:04:42;;;;;;;31.23;24.02;;;5.40;99.90;;;;;;5015569;28;20091;-72
2024/01/30 03:07:08;;;;;;;31.60;23.95;;;5.40;99.90;;;;;;5016445;28;20037;-72
2024/01/30 03:09:34;;;;;;;30.08;22.58;;;5.40;99.90;;;;;;5037126;28;20044;-72
2024/01/30 03:11:59;;;;;;;30.40;22.95;;;5.40;99.90;;;;;;5036250;28;20041;-72
2024/01/30 03:14:25;;;;;;;33.67;22.17;;;5.40;99.90;;;;;;5017900;28;20065;-72
2024/01/30 03:16:50;;;;;;;27.33;21.30;;;5.30;99.90;;;;;;5015678;28;20048;-72
2024/01/30 03:19:16;;;;;;;30.08;22.23;;;5.30;99.90;;;;;;5035016;28;20040;-72
2024/01/30 03:21:42;;;;;;;27.92;21.98;;;5.20;99.90;;;;;;5034988;28;20499;-72
2024/01/30 03:24:09;;;;;;;25.42;21.60;;;5.20;99.90;;;;;;5034550;28;20053;-73
2024/01/30 03:26:34;;;;;;;28.27;22.88;;;5.20;99.90;;;;;;5035602;28;20107;-72
2024/01/30 03:29:00;;;;;;;32.08;24.00;;;5.10;99.90;;;;;;5016581;28;20045;-72
2024/01/30 03:31:25;;;;;;;36.97;24.15;;;5.20;99.90;;;;;;5003143;28;20636;-72
2024/01/30 03:33:51;;;;;;;32.10;25.08;;;5.20;99.90;;;;;;5033991;28;20056;-72
2024/01/30 03:36:16;;;;;;;31.50;24.33;;;5.30;99.90;;;;;;5017804;28;20037;-72
2024/01/30 03:38:42;;;;;;;32.65;23.60;;;5.30;99.90;;;;;;5016267;28;20049;-72
2024/01/30 03:41:09;;;;;;;31.52;22.70;;;5.40;99.90;;;;;;5033565;28;20064;-72
2024/01/30 03:43:35;;;;;;;29.65;22.67;;;5.30;99.90;;;;;;5018217;28;20049;-72
2024/01/30 03:46:01;;;;;;;27.98;21.75;;;5.30;99.90;;;;;;5015388;28;20080;-72
2024/01/30 03:48:27;;;;;;;29.98;22.52;;;5.30;99.90;;;;;;5012436;28;20053;-73
2024/01/30 03:50:53;;;;;;;29.75;23.58;;;5.20;99.90;;;;;;5016319;28;20115;-72
2024/01/30 03:53:18;;;;;;;31.35;24.15;;;5.30;99.90;;;;;;5035549;28;20526;-72
2024/01/30 03:55:44;;;;;;;32.63;25.00;;;5.40;99.90;;;;;;5033172;28;20045;-72
2024/01/30 03:58:09;;;;;;;31.05;24.33;;;5.40;99.90;;;;;;5032044;28;20048;-72
2024/01/30 04:00:35;;;;;;;28.30;22.88;;;5.50;99.90;;;;;;5017757;28;20110;-72
2024/01/30 04:03:01;;;;;;;31.83;25.33;;;5.50;99.90;;;;;;5027124;28;20048;-72
2024/01/30 04:05:26;;;;;;;31.73;23.25;;;5.60;99.90;;;;;;5016195;28;20128;-72
2024/01/30 04:07:52;;;;;;;29.35;22.52;;;5.60;99.90;;;;;;5034279;28;20049;-72
2024/01/30 04:10:17;;;;;;;26.75;21.92;;;5.60;99.90;;;;;;5017115;28;21780;-72
2024/01/30 04:12:43;;;;;;;33.38;22.48;;;5.60;99.90;;;;;;5034162;28;20495;-73
2024/01/30 04:15:09;;;;;;;31.95;22.67;;;5.60;99.90;;;;;;5016268;28;20037;-72
2024/01/30 04:17:34;;;;;;;32.53;22.73;;;5.60;99.90;;;;;;5032073;28;20089;-72
2024/01/30 04:20:00;;;;;;;30.33;22.58;;;5.60;99.90;;;;;;5030386;28;20118;-73
2024/01/30 04:22:26;;;;;;;29.33;23.10;;;5.60;99.90;;;;;;5018080;28;20045;-72
2024/01/30 04:24:51;;;;;;;29.52;23.27;;;5.60;99.90;;;;;;5032438;28;20052;-72
2024/01/30 04:27:17;;;;;;;28.35;22.40;;;5.80;99.90;;;;;;5017848;28;20606;-72
2024/01/30 04:29:42;;;;;;;30.45;22.63;;;5.80;99.90;;;;;;5014575;28;20046;-72
2024/01/30 04:32:09;;;;;;;29.70;22.48;;;5.80;99.90;;;;;;5033568;28;20080;-72
2024/01/30 04:34:36;;;;;;;29.15;22.85;;;5.90;99.90;;;;;;5030081;28;20041;-72
2024/01/30 04:37:02;;;;;;;31.67;22.75;;;5.90;99.90;;;;;;5032407;28;20059;-72
2024/01/30 04:39:28;;;;;;;29.88;23.73;;;5.90;99.90;;;;;;5015396;28;20764;-72
2024/01/30 04:41:53;;;;;;;30.55;22.67;;;6.00;99.90;;;;;;5000080;28;20168;-72
2024/01/30 04:44:19;;;;;;;29.50;21.85;;;6.00;99.90;;;;;;5035549;28;20043;-72
2024/01/30 04:46:45;;;;;;;29.90;22.77;;;6.00;99.90;;;;;;5033284;28;20047;-72
2024/01/30 04:49:10;;;;;;;30.38;23.30;;;6.10;99.90;;;;;;5017500;28;20045;-73
2024/01/30 04:51:36;;;;;;;30.38;22.55;;;6.10;99.90;;;;;;5031591;28;20049;-72
2024/01/30 04:54:02;;;;;;;27.50;21.88;;;6.10;99.90;;;;;;5020915;28;20037;-73
2024/01/30 04:56:27;;;;;;;28.88;21.58;;;6.10;99.90;;;;;;5015048;28;20704;-73
2024/01/30 04:58:53;;;;;;;28.00;21.45;;;6.20;99.90;;;;;;5031952;28;20048;-72
2024/01/30 05:01:19;;;;;;;27.92;21.40;;;6.20;99.90;;;;;;5033996;28;20045;-73
2024/01/30 05:03:44;;;;;;;25.42;21.08;;;6.10;99.90;;;;;;5013858;28;20511;-72
2024/01/30 05:06:10;;;;;;;26.40;20.15;;;6.20;99.90;;;;;;5016301;28;20033;-73
2024/01/30 05:08:38;;;;;;;28.27;20.67;;;6.20;99.90;;;;;;5009832;28;20136;-73
2024/01/30 05:11:07;;;;;;;26.77;20.88;;;6.20;99.90;;;;;;5032662;28;20083;-73
2024/01/30 05:13:32;;;;;;;28.25;21.25;;;6.20;99.90;;;;;;5016234;28;20462;-72
2024/01/30 05:15:58;;;;;;;29.30;21.50;;;6.30;99.90;;;;;;5033294;28;20057;-72
2024/01/30 05:18:24;;;;;;;24.75;20.83;;;6.30;99.90;;;;;;5033381;28;20724;-72
2024/01/30 05:20:50;;;;;;;25.63;20.92;;;6.30;99.90;;;;;;5014869;28;20140;-72
2024/01/30 05:23:16;;;;;;;23.75;19.25;;;6.30;99.90;;;;;;5033592;28;20047;-72
2024/01/30 05:25:41;;;;;;;26.55;20.05;;;6.30;99.90;;;;;;5014093;28;20047;-72
2024/01/30 05:28:07;;;;;;;25.40;19.70;;;6.30;99.90;;;;;;5032236;28;20134;-72
2024/01/30 05:30:33;;;;;;;26.98;19.45;;;6.30;99.90;;;;;;5015950;28;20037;-72
2024/01/30 05:32:58;;;;;;;26.80;20.13;;;6.30;99.90;;;;;;5013590;28;20056;-73
2024/01/30 05:35:24;;;;;;;26.27;20.17;;;6.40;99.90;;;;;;5016014;28;20498;-72
2024/01/30 05:37:51;;;;;;;27.33;20.13;;;6.40;99.90;;;;;;5032804;28;20094;-72
2024/01/30 05:40:17;;;;;;;25.95;20.45;;;6.40;99.90;;;;;;5030964;28;20053;-72
2024/01/30 05:42:43;;;;;;;24.05;20.33;;;6.30;99.90;;;;;;4991974;28;20049;-72
2024/01/30 05:45:08;;;;;;;24.85;19.67;;;6.40;99.90;;;;;;5013727;28;20044;-72
2024/01/30 05:47:37;;;;;;;24.63;19.77;;;6.40;99.90;;;;;;5014235;28;20772;-72
2024/01/30 05:50:03;;;;;;;25.05;19.77;;;6.40;99.90;;;;;;5031557;28;20048;-72
2024/01/30 05:52:28;;;;;;;23.95;19.75;;;6.40;99.90;;;;;;5033136;28;20415;-72
2024/01/30 05:54:54;;;;;;;23.80;19.65;;;6.50;99.90;;;;;;5013465;28;20080;-72
2024/01/30 05:57:20;;;;;;;24.92;18.67;;;6.50;99.90;;;;;;5033173;28;20070;-72
2024/01/30 05:59:47;;;;;;;28.33;19.13;;;6.50;99.90;;;;;;5030858;28;20095;-72
2024/01/30 06:02:13;;;;;;;22.85;18.20;;;6.50;99.90;;;;;;5013902;28;20052;-72
2024/01/30 06:04:39;;;;;;;26.65;19.30;;;6.50;99.90;;;;;;5013962;28;20059;-72
2024/01/30 06:07:06;;;;;;;24.88;18.52;;;6.60;99.90;;;;;;5013998;28;20091;-72
2024/01/30 06:09:32;;;;;;;29.42;18.85;;;6.60;99.90;;;;;;5014276;28;20076;-72
2024/01/30 06:11:57;;;;;;;25.88;18.30;;;6.60;99.90;;;;;;5011752;28;20164;-72
2024/01/30 06:14:23;;;;;;;21.42;17.95;;;6.70;99.90;;;;;;5029885;28;20041;-72
2024/01/30 06:16:49;;;;;;;22.98;18.38;;;6.70;99.90;;;;;;5014323;28;20152;-72
2024/01/30 06:19:15;;;;;;;24.38;18.38;;;6.70;99.90;;;;;;5013851;28;20499;-72
2024/01/30 06:21:40;;;;;;;21.17;17.65;;;6.80;99.90;;;;;;5031519;28;20044;-72
2024/01/30 06:24:06;;;;;;;24.20;17.73;;;6.90;99.90;;;;;;5013684;28;20128;-72
2024/01/30 06:26:31;;;;;;;21.75;17.65;;;6.90;99.90;;;;;;5011283;28;20072;-73
2024/01/30 06:28:57;;;;;;;27.02;18.92;;;6.90;99.90;;;;;;5012620;28;20057;-73
2024/01/30 06:31:23;;;;;;;22.67;18.38;;;6.90;99.90;;;;;;5013560;28;20059;-72
2024/01/30 06:33:49;;;;;;;24.02;18.17;;;6.90;99.90;;;;;;5013876;28;20135;-72
2024/01/30 06:36:15;;;;;;;23.35;18.10;;;6.90;99.90;;;;;;5012161;28;20040;-73
2024/01/30 06:38:41;;;;;;;25.00;17.85;;;6.90;99.90;;;;;;5034563;28;20052;-73
2024/01/30 06:41:07;;;;;;;21.42;18.10;;;6.80;99.90;;;;;;5014816;28;20517;-72
2024/01/30 06:43:32;;;;;;;25.15;17.58;;;6.80;99.90;;;;;;5020688;28;20080;-72
2024/01/30 06:45:59;;;;;;;22.45;18.05;;;6.90;99.90;;;;;;5016727;28;20037;-73
2024/01/30 06:48:25;;;;;;;22.33;17.42;;;6.80;99.90;;;;;;5018340;28;20447;-72
2024/01/30 06:50:53;;;;;;;27.30;18.08;;;6.80;99.90;;;;;;5035715;28;20132;-73
2024/01/30 06:53:19;;;;;;;25.77;18.38;;;6.80;99.90;;;;;;5033787;28;20110;-72
2024/01/30 06:55:45;;;;;;;25.67;16.88;;;6.90;99.90;;;;;;5035331;28;20045;-73
2024/01/30 06:58:11;;;;;;;22.92;17.75;;;7.00;99.90;;;;;;5015044;28;20064;-73
2024/01/30 07:00:37;;;;;;;22.05;16.75;;;7.00;99.90;;;;;;5017693;28;20072;-73
2024/01/30 07:03:03;;;;;;;21.58;16.52;;;7.00;99.90;;;;;;5016379;28;20056;-73
2024/01/30 07:05:28;;;;;;;20.67;17.42;;;7.00;99.90;;;;;;5015810;28;20503;-73
2024/01/30 07:07:54;;;;;;;20.85;17.10;;;7.00;99.90;;;;;;5037523;28;20045;-73
2024/01/30 07:10:19;;;;;;;20.98;16.88;;;7.00;99.90;;;;;;5021220;28;20033;-73
2024/01/30 07:12:45;;;;;;;21.40;16.98;;;7.00;99.90;;;;;;5033453;28;20037;-73
2024/01/30 07:15:11;;;;;;;21.48;16.77;;;7.10;99.90;;;;;;5018377;28;20041;-73
2024/01/30 07:17:37;;;;;;;21.77;16.52;;;7.10;99.90;;;;;;5020216;28;20045;-73
2024/01/30 07:20:06;;;;;;;17.88;15.80;;;7.20;99.90;;;;;;5018061;28;20065;-73
2024/01/30 07:22:31;;;;;;;20.92;15.32;;;7.30;99.90;;;;;;5016106;28;20032;-73
2024/01/30 07:24:57;;;;;;;18.92;15.75;;;7.40;99.90;;;;;;5037614;28;20484;-73
2024/01/30 07:27:23;;;;;;;20.98;16.13;;;7.40;99.90;;;;;;5030121;28;20156;-73
2024/01/30 07:29:49;;;;;;;23.42;15.68;;;7.50;99.90;;;;;;5034421;28;20046;-73
2024/01/30 07:32:14;;;;;;;24.20;15.85;;;7.50;99.90;;;;;;5034360;28;20130;-73
2024/01/30 07:34:40;;;;;;;18.30;15.63;;;7.50;99.90;;;;;;5038725;28;21797;-72
2024/01/30 07:37:08;;;;;;;23.20;15.65;;;7.40;99.90;;;;;;5037421;28;20136;-73
2024/01/30 07:39:34;;;;;;;19.55;15.23;;;7.50;99.90;;;;;;5018771;28;20057;-73
2024/01/30 07:41:59;;;;;;;20.92;15.85;;;7.50;99.90;;;;;;5018574;28;20906;-73
2024/01/30 07:44:25;;;;;;;21.45;15.80;;;7.50;99.90;;;;;;5034836;28;20045;-73
2024/01/30 07:46:51;;;;;;;22.35;16.38;;;7.50;99.90;;;;;;5017716;28;20056;-73
2024/01/30 07:49:17;;;;;;;17.48;13.98;;;7.50;99.90;;;;;;5016976;28;20045;-73
2024/01/30 07:51:43;;;;;;;20.88;15.57;;;7.60;99.90;;;;;;5037113;28;20037;-73
2024/01/30 07:54:08;;;;;;;21.90;14.95;;;7.70;99.90;;;;;;5018462;28;20041;-73
2024/01/30 07:56:34;;;;;;;20.05;14.80;;;7.70;99.90;;;;;;5037269;28;20045;-73
2024/01/30 07:58:59;;;;;;;18.67;14.23;;;7.80;99.90;;;;;;5019046;28;20083;-73
2024/01/30 08:01:25;;;;;;;18.60;14.70;;;7.80;99.90;;;;;;5018998;28;20446;-73
2024/01/30 08:03:51;;;;;;;20.38;15.20;;;7.80;99.90;;;;;;5019320;28;20057;-72
2024/01/30 08:06:17;;;;;;;18.42;14.18;;;7.80;99.90;;;;;;5036521;28;20052;-73
2024/01/30 08:08:42;;;;;;;18.67;15.00;;;7.80;99.90;;;;;;5019525;28;20067;-73
2024/01/30 08:11:08;;;;;;;16.90;14.30;;;7.90;99.90;;;;;;5032223;28;20053;-73
2024/01/30 08:13:34;;;;;;;22.52;13.98;;;7.90;99.90;;;;;;5033080;28;20045;-73
2024/01/30 08:15:59;;;;;;;18.75;13.60;;;8.00;99.90;;;;;;5034811;28;20120;-73
2024/01/30 08:18:25;;;;;;;15.02;13.05;;;8.10;99.90;;;;;;5036370;28;20392;-73
2024/01/30 08:20:50;;;;;;;16.65;13.07;;;8.10;99.90;;;;;;5018912;28;20495;-73
2024/01/30 08:23:16;;;;;;;19.98;13.60;;;8.20;99.90;;;;;;4998246;28;20888;-73
2024/01/30 08:25:42;;;;;;;18.23;13.65;;;8.20;99.90;;;;;;5017018;28;20045;-73
2024/01/30 08:28:07;;;;;;;20.98;13.68;;;8.30;99.90;;;;;;5034087;28;20781;-73
2024/01/30 08:30:33;;;;;;;16.55;13.13;;;8.30;99.90;;;;;;5014135;28;20045;-73
2024/01/30 08:32:59;;;;;;;18.98;12.82;;;8.30;99.90;;;;;;5016997;28;20076;-73
2024/01/30 08:35:24;;;;;;;17.50;12.85;;;8.40;99.90;;;;;;5013797;28;20150;-73
2024/01/30 08:37:50;;;;;;;16.75;12.35;;;8.40;99.90;;;;;;5018274;28;20045;-73
2024/01/30 08:40:16;;;;;;;19.95;13.48;;;8.50;99.90;;;;;;5015714;28;20040;-73
2024/01/30 08:42:41;;;;;;;16.88;12.85;;;8.50;99.90;;;;;;5016580;28;20625;-73
2024/01/30 08:45:08;;;;;;;16.08;12.18;;;8.50;99.90;;;;;;5017252;28;20044;-73
2024/01/30 08:47:33;;;;;;;14.43;11.48;;;8.60;99.90;;;;;;5031485;28;20056;-73
2024/01/30 08:49:59;;;;;;;16.00;12.23;;;8.60;99.90;;;;;;5032124;28;20040;-73
2024/01/30 08:52:25;;;;;;;16.20;11.95;;;8.70;99.90;;;;;;5033123;28;20090;-73
2024/01/30 08:54:50;;;;;;;18.25;14.20;;;8.70;99.90;;;;;;5034244;28;20072;-73
2024/01/30 08:57:16;;;;;;;20.42;14.20;;;8.70;99.90;;;;;;5014433;28;20048;-73
2024/01/30 08:59:44;;;;;;;15.27;13.52;;;8.80;99.90;;;;;;5027779;28;20056;-73
2024/01/30 09:02:10;;;;;;;17.73;12.88;;;8.80;99.90;;;;;;5025216;28;20422;-73
2024/01/30 09:04:35;;;;;;;15.63;12.32;;;8.80;99.90;;;;;;5015907;28;20049;-73
2024/01/30 09:07:01;;;;;;;19.13;13.93;;;8.90;99.90;;;;;;5015616;28;20492;-73
2024/01/30 09:09:26;;;;;;;17.98;12.48;;;8.80;99.90;;;;;;5014771;28;20137;-73
2024/01/30 09:11:52;;;;;;;15.65;12.10;;;8.90;99.90;;;;;;5015357;28;20048;-73
2024/01/30 09:14:18;;;;;;;15.30;11.93;;;8.90;99.90;;;;;;5033197;28;20511;-73
2024/01/30 09:16:43;;;;;;;15.20;12.20;;;8.90;99.90;;;;;;5032429;28;20106;-73
2024/01/30 09:19:09;;;;;;;15.55;12.15;;;8.90;99.90;;;;;;5013620;28;20059;-73
2024/01/30 09:21:34;;;;;;;14.77;12.55;;;8.90;99.90;;;;;;5016191;28;20061;-73
2024/01/30 09:24:06;;;;;;;14.65;12.38;;;9.00;99.90;;;;;;5035229;28;20519;-73
2024/01/30 09:26:31;;;;;;;16.10;12.52;;;9.00;99.90;;;;;;5015179;28;20048;-73
2024/01/30 09:28:57;;;;;;;13.23;11.63;;;8.90;99.90;;;;;;5017160;28;20049;-73
2024/01/30 09:31:23;;;;;;;15.75;12.93;;;9.00;99.90;;;;;;5014986;28;20049;-73
2024/01/30 09:33:49;;;;;;;15.75;12.35;;;9.00;99.90;;;;;;5032313;28;20036;-73
2024/01/30 09:36:19;;;;;;;17.23;12.45;;;9.00;99.90;;;;;;5016255;28;20713;-73
2024/01/30 09:38:45;;;;;;;17.88;12.32;;;9.00;99.90;;;;;;4998636;28;20070;-73
2024/01/30 09:41:12;;;;;;;14.70;12.45;;;9.10;99.90;;;;;;5014628;28;20041;-73
2024/01/30 09:43:41;;;;;;;18.17;13.02;;;9.10;99.90;;;;;;5027499;28;20044;-73
2024/01/30 09:46:11;;;;;;;16.40;12.60;;;9.10;99.90;;;;;;5000673;28;20056;-73
2024/01/30 09:48:37;;;;;;;17.00;12.38;;;9.20;99.90;;;;;;5013972;28;20059;-73
2024/01/30 09:51:05;;;;;;;16.30;12.82;;;9.20;99.90;;;;;;5031933;28;20123;-73
2024/01/30 09:53:31;;;;;;;17.35;12.75;;;9.20;99.90;;;;;;5016051;28;20047;-73
2024/01/30 09:55:57;;;;;;;15.95;12.23;;;9.30;99.90;;;;;;5032014;28;20048;-73
2024/01/30 09:58:23;;;;;;;17.95;12.68;;;9.30;99.90;;;;;;5027458;28;21361;-73
2024/01/30 10:00:49;;;;;;;19.58;12.55;;;9.40;99.90;;;;;;5016820;28;20041;-73
2024/01/30 10:03:14;;;;;;;17.70;12.57;;;9.40;99.90;;;;;;5013716;28;20177;-73
2024/01/30 10:05:41;;;;;;;20.15;13.10;;;9.40;99.90;;;;;;5013959;28;20061;-73
2024/01/30 10:08:10;;;;;;;17.55;12.45;;;9.50;99.90;;;;;;5015109;28;20056;-73
2024/01/30 10:10:35;;;;;;;17.48;12.55;;;9.50;99.90;;;;;;5014973;28;20060;-73
2024/01/30 10:13:01;;;;;;;19.52;12.55;;;9.50;99.90;;;;;;5014046;28;20045;-73
2024/01/30 10:15:28;;;;;;;18.95;12.80;;;9.60;99.90;;;;;;5028265;28;20091;-73
2024/01/30 10:17:55;;;;;;;18.25;12.75;;;9.60;99.90;;;;;;5014018;28;20045;-73
2024/01/30 10:20:22;;;;;;;15.68;11.98;;;9.60;99.90;;;;;;5016584;28;20175;-72
2024/01/30 10:22:48;;;;;;;18.58;12.20;;;9.60;99.90;;;;;;5016651;28;20056;-72
2024/01/30 10:25:15;;;;;;;15.68;12.23;;;9.60;99.90;;;;;;5036028;28;20048;-72
2024/01/30 10:27:40;;;;;;;16.25;11.95;;;9.70;99.90;;;;;;5015415;28;20049;-72
2024/01/30 10:30:07;;;;;;;17.42;12.23;;;9.70;99.90;;;;;;5017930;28;20040;-72
2024/01/30 10:32:33;;;;;;;17.08;11.95;;;9.80;99.90;;;;;;5015124;28;20488;-72
2024/01/30 10:34:59;;;;;;;17.50;12.27;;;9.80;99.90;;;;;;5030249;28;20048;-72
2024/01/30 10:37:26;;;;;;;18.73;11.98;;;9.90;99.90;;;;;;5035008;28;20048;-72
2024/01/30 10:39:55;;;;;;;15.57;12.05;;;9.90;99.90;;;;;;5017622;28;20094;-72
2024/01/30 10:42:25;;;;;;;15.98;11.95;;;10.00;99.90;;;;;;5033900;28;20037;-72
2024/01/30 10:45:08;;;;;;;22.27;12.15;;;10.00;99.90;;;;;;5034478;28;20052;-72
2024/01/30 10:47:34;;;;;;;;;;;10.00;99.90;;;;;;5017139;28;20044;-72
2024/01/30 10:50:00;;;;;;;18.10;12.13;;;10.00;99.90;;;;;;5030240;28;19935;-72
2024/01/30 10:52:26;;;;;;;16.33;12.27;;;10.00;99.90;;;;;;5032568;28;20466;-72
2024/01/30 10:54:53;;;;;;;19.35;11.77;;;10.10;99.90;;;;;;5016815;28;20037;-72
2024/01/30 10:57:22;;;;;;;18.67;12.48;;;10.10;99.90;;;;;;5032437;28;20479;-72
2024/01/30 10:59:49;;;;;;;16.77;11.95;;;10.10;99.90;;;;;;5014675;28;20044;-72
2024/01/30 11:02:16;;;;;;;17.17;12.70;;;10.20;99.90;;;;;;5029502;28;20060;-72
2024/01/30 11:04:42;;;;;;;17.70;12.05;;;10.20;99.90;;;;;;5015450;28;20396;-72
2024/01/30 11:07:18;;;;;;;15.50;12.00;;;10.20;99.90;;;;;;5015075;28;20068;-72
2024/01/30 11:10:03;;;;;;;20.55;13.05;;;10.20;99.90;;;;;;5016252;28;20052;-72
2024/01/30 11:12:30;;;;;;;20.23;12.35;;;10.20;99.90;;;;;;5028165;28;20488;-72
2024/01/30 11:15:07;;;;;;;21.42;12.80;;;10.20;99.90;;;;;;5015594;28;20156;-72
2024/01/30 11:17:48;;;;;;;20.90;12.80;;;10.20;99.90;;;;;;5016393;28;20040;-72
2024/01/30 11:20:29;;;;;;;19.13;12.70;;;10.40;99.90;;;;;;5033994;28;20044;-72
2024/01/30 11:22:57;;;;;;;18.80;12.07;;;10.50;99.90;;;;;;5032327;28;20037;-72
2024/01/30 11:25:24;;;;;;;24.77;13.43;;;10.50;99.90;;;;;;5034468;28;20063;-72
2024/01/30 11:27:53;;;;;;;19.48;12.07;;;10.50;99.90;;;;;;5032424;28;20629;-72
2024/01/30 11:30:25;;;;;;;19.00;12.15;;;10.60;99.90;;;;;;5036699;28;20036;-72
2024/01/30 11:33:08;;;;;;;18.35;12.30;;;10.60;99.90;;;;;;5036856;28;20045;-71
2024/01/30 11:35:44;;;;;;;22.55;12.85;;;10.60;99.90;;;;;;5017250;28;20123;-72
2024/01/30 11:38:13;;;;;;;17.35;12.88;;;10.70;99.90;;;;;;5020175;28;20053;-72
2024/01/30 11:40:39;;;;;;;24.08;13.77;;;10.70;99.90;;;;;;5034064;28;20044;-72
2024/01/30 11:43:06;;;;;;;18.75;12.65;;;10.80;99.90;;;;;;5018776;28;20069;-71
2024/01/30 11:45:32;;;;;;;21.90;12.80;;;10.90;99.90;;;;;;5021372;28;20987;-72
2024/01/30 11:48:03;;;;;;;18.48;11.70;;;11.00;99.90;;;;;;5017474;28;20128;-71
2024/01/30 11:50:30;;;;;;;13.38;10.45;;;11.10;99.90;;;;;;5037314;28;20044;-72
2024/01/30 11:52:56;;;;;;;12.02;10.43;;;11.20;99.90;;;;;;5017267;28;20048;-72
2024/01/30 11:55:23;;;;;;;16.00;10.20;;;11.30;99.90;;;;;;5021029;28;20068;-72
2024/01/30 11:57:49;;;;;;;21.00;11.07;;;11.30;99.90;;;;;;5021018;28;20069;-72
2024/01/30 12:00:16;;;;;;;14.90;10.15;;;11.40;99.90;;;;;;5038157;28;20148;-72
2024/01/30 12:02:43;;;;;;;17.30;9.82;;;11.50;99.90;;;;;;5019496;28;20045;-71
2024/01/30 12:05:11;;;;;;;13.43;9.20;;;11.50;99.90;;;;;;5019455;28;20600;-71
2024/01/30 12:07:37;;;;;;;11.73;8.75;;;11.60;99.90;;;;;;5035717;28;20494;-72
2024/01/30 12:10:03;;;;;;;12.02;8.48;;;11.70;99.90;;;;;;5033423;28;20095;-72
2024/01/30 12:12:29;;;;;;;15.73;8.93;;;11.70;99.90;;;;;;5018446;28;20272;-72
2024/01/30 12:14:56;;;;;;;12.68;7.80;;;11.70;99.90;;;;;;5036612;28;20037;-72
2024/01/30 12:17:32;;;;;;;11.50;7.90;;;11.80;99.90;;;;;;5013948;28;20044;-72
2024/01/30 12:20:15;;;;;;;15.20;8.48;;;11.80;99.90;;;;;;5016266;28;20056;-71
2024/01/30 12:22:43;;;;;;;19.77;10.88;;;11.70;99.90;;;;;;5034481;28;20049;-72
2024/01/30 12:25:10;;;;;;;16.63;11.50;;;11.60;99.90;;;;;;5032757;28;20044;-71
2024/01/30 12:27:37;;;;;;;16.92;10.55;;;11.40;99.90;;;;;;5033503;28;20128;-72
2024/01/30 12:30:10;;;;;;;16.85;10.90;;;11.20;99.90;;;;;;5034783;28;20048;-72
2024/01/30 12:32:37;;;;;;;21.15;9.80;;;11.00;99.90;;;;;;5015400;28;20049;-72